sensor_id;sensor_type;location;lat;lon;timestamp;temperature;humidity
55211;DHT22;41082;52.822;6.666;2023-08-06T00:02:18;15.90;99.90
55211;DHT22;41082;52.822;6.666;2023-08-06T00:04:44;15.80;99.90
55211;DHT22;41082;52.822;6.666;2023-08-06T00:07:09;15.80;99.90
55211;DHT22;41082;52.822;6.666;2023-08-06T00:09:35;15.80;99.90
55211;DHT22;41082;52.822;6.666;2023-08-06T00:12:00;15.90;99.90
55211;DHT22;41082;52.822;6.666;2023-08-06T00:14:26;15.80;99.90
55211;DHT22;41082;52.822;6.666;2023-08-06T00:16:51;15.80;99.90
55211;DHT22;41082;52.822;6.666;2023-08-06T00:19:17;15.80;99.90
55211;DHT22;41082;52.822;6.666;2023-08-06T00:21:43;15.80;99.90
55211;DHT22;41082;52.822;6.666;2023-08-06T00:24:08;15.80;99.90
55211;DHT22;41082;52.822;6.666;2023-08-06T00:26:34;15.80;99.90
55211;DHT22;41082;52.822;6.666;2023-08-06T00:28:59;15.80;99.90
55211;DHT22;41082;52.822;6.666;2023-08-06T00:31:25;15.80;99.90
55211;DHT22;41082;52.822;6.666;2023-08-06T00:33:50;15.80;99.90
55211;DHT22;41082;52.822;6.666;2023-08-06T00:36:16;15.80;99.90
55211;DHT22;41082;52.822;6.666;2023-08-06T00:38:42;15.80;99.90
55211;DHT22;41082;52.822;6.666;2023-08-06T00:41:07;15.80;99.90
55211;DHT22;41082;52.822;6.666;2023-08-06T00:43:33;15.70;99.90
55211;DHT22;41082;52.822;6.666;2023-08-06T00:45:59;15.70;99.90
55211;DHT22;41082;52.822;6.666;2023-08-06T00:48:25;15.70;99.90
55211;DHT22;41082;52.822;6.666;2023-08-06T00:50:50;15.80;99.90
55211;DHT22;41082;52.822;6.666;2023-08-06T00:53:16;15.70;99.90
55211;DHT22;41082;52.822;6.666;2023-08-06T00:55:44;15.70;99.90
55211;DHT22;41082;52.822;6.666;2023-08-06T00:58:11;15.80;99.90
55211;DHT22;41082;52.822;6.666;2023-08-06T01:00:37;15.70;99.90
55211;DHT22;41082;52.822;6.666;2023-08-06T01:03:03;15.70;99.90
55211;DHT22;41082;52.822;6.666;2023-08-06T01:05:29;15.70;99.90
55211;DHT22;41082;52.822;6.666;2023-08-06T01:08:10;15.70;99.90
55211;DHT22;41082;52.822;6.666;2023-08-06T01:13:46;15.70;99.90
55211;DHT22;41082;52.822;6.666;2023-08-06T01:16:17;15.60;99.90
55211;DHT22;41082;52.822;6.666;2023-08-06T01:18:43;15.60;99.90
55211;DHT22;41082;52.822;6.666;2023-08-06T01:21:12;15.60;99.90
55211;DHT22;41082;52.822;6.666;2023-08-06T01:23:38;15.60;99.90
55211;DHT22;41082;52.822;6.666;2023-08-06T01:26:27;15.60;99.90
55211;DHT22;41082;52.822;6.666;2023-08-06T01:29:01;15.60;99.90
55211;DHT22;41082;52.822;6.666;2023-08-06T01:31:31;15.50;99.90
55211;DHT22;41082;52.822;6.666;2023-08-06T01:33:58;15.60;99.90
55211;DHT22;41082;52.822;6.666;2023-08-06T01:36:25;15.60;99.90
55211;DHT22;41082;52.822;6.666;2023-08-06T01:38:53;15.50;99.90
55211;DHT22;41082;52.822;6.666;2023-08-06T01:41:18;15.50;99.90
55211;DHT22;41082;52.822;6.666;2023-08-06T01:43:44;15.50;99.90
55211;DHT22;41082;52.822;6.666;2023-08-06T01:46:10;15.50;99.90
55211;DHT22;41082;52.822;6.666;2023-08-06T01:48:36;15.50;99.90
55211;DHT22;41082;52.822;6.666;2023-08-06T01:51:04;15.50;99.90
55211;DHT22;41082;52.822;6.666;2023-08-06T01:53:30;15.50;99.90
55211;DHT22;41082;52.822;6.666;2023-08-06T01:55:57;15.50;99.90
55211;DHT22;41082;52.822;6.666;2023-08-06T01:58:22;15.50;99.90
55211;DHT22;41082;52.822;6.666;2023-08-06T02:00:48;15.50;99.90
55211;DHT22;41082;52.822;6.666;2023-08-06T02:03:13;15.40;99.90
55211;DHT22;41082;52.822;6.666;2023-08-06T02:05:40;15.40;99.90
55211;DHT22;41082;52.822;6.666;2023-08-06T02:08:06;15.50;99.90
55211;DHT22;41082;52.822;6.666;2023-08-06T02:10:31;15.50;99.90
55211;DHT22;41082;52.822;6.666;2023-08-06T02:12:57;15.50;99.90
55211;DHT22;41082;52.822;6.666;2023-08-06T02:15:23;15.40;99.90
55211;DHT22;41082;52.822;6.666;2023-08-06T02:17:48;15.40;99.90
55211;DHT22;41082;52.822;6.666;2023-08-06T02:20:14;15.40;99.90
55211;DHT22;41082;52.822;6.666;2023-08-06T02:22:39;15.40;99.90
55211;DHT22;41082;52.822;6.666;2023-08-06T02:25:05;15.40;99.90
55211;DHT22;41082;52.822;6.666;2023-08-06T02:27:31;15.40;99.90
55211;DHT22;41082;52.822;6.666;2023-08-06T02:29:56;15.40;99.90
55211;DHT22;41082;52.822;6.666;2023-08-06T02:32:22;15.40;99.90
55211;DHT22;41082;52.822;6.666;2023-08-06T02:34:47;15.40;99.90
55211;DHT22;41082;52.822;6.666;2023-08-06T02:37:13;15.40;99.90
55211;DHT22;41082;52.822;6.666;2023-08-06T02:39:39;15.40;99.90
55211;DHT22;41082;52.822;6.666;2023-08-06T02:42:07;15.40;99.90
55211;DHT22;41082;52.822;6.666;2023-08-06T02:44:33;15.40;99.90
55211;DHT22;41082;52.822;6.666;2023-08-06T02:46:59;15.50;99.90
55211;DHT22;41082;52.822;6.666;2023-08-06T02:49:25;15.40;99.90
55211;DHT22;41082;52.822;6.666;2023-08-06T02:51:50;15.40;99.90
55211;DHT22;41082;52.822;6.666;2023-08-06T02:54:17;15.40;99.90
55211;DHT22;41082;52.822;6.666;2023-08-06T02:56:44;15.40;99.90
55211;DHT22;41082;52.822;6.666;2023-08-06T02:59:10;15.40;99.90
55211;DHT22;41082;52.822;6.666;2023-08-06T03:01:36;15.40;99.90
55211;DHT22;41082;52.822;6.666;2023-08-06T03:04:02;15.50;99.90
55211;DHT22;41082;52.822;6.666;2023-08-06T03:06:27;15.40;99.90
55211;DHT22;41082;52.822;6.666;2023-08-06T03:08:53;15.40;99.90
55211;DHT22;41082;52.822;6.666;2023-08-06T03:11:19;15.40;99.90
55211;DHT22;41082;52.822;6.666;2023-08-06T03:13:44;15.40;99.90
55211;DHT22;41082;52.822;6.666;2023-08-06T03:16:10;15.40;99.90
55211;DHT22;41082;52.822;6.666;2023-08-06T03:18:35;15.40;99.90
55211;DHT22;41082;52.822;6.666;2023-08-06T03:21:01;15.40;99.90
55211;DHT22;41082;52.822;6.666;2023-08-06T03:23:26;15.30;99.90
55211;DHT22;41082;52.822;6.666;2023-08-06T03:25:52;15.30;99.90
55211;DHT22;41082;52.822;6.666;2023-08-06T03:28:17;15.30;99.90
55211;DHT22;41082;52.822;6.666;2023-08-06T03:30:43;15.30;99.90
55211;DHT22;41082;52.822;6.666;2023-08-06T03:33:09;15.20;99.90
55211;DHT22;41082;52.822;6.666;2023-08-06T03:35:34;15.30;99.90
55211;DHT22;41082;52.822;6.666;2023-08-06T03:38:00;15.30;99.90
55211;DHT22;41082;52.822;6.666;2023-08-06T03:40:25;15.20;99.90
55211;DHT22;41082;52.822;6.666;2023-08-06T03:42:51;15.20;99.90
55211;DHT22;41082;52.822;6.666;2023-08-06T03:45:16;15.20;99.90
55211;DHT22;41082;52.822;6.666;2023-08-06T03:47:42;15.20;99.90
55211;DHT22;41082;52.822;6.666;2023-08-06T03:50:08;15.20;99.90
55211;DHT22;41082;52.822;6.666;2023-08-06T03:52:33;15.10;99.90
55211;DHT22;41082;52.822;6.666;2023-08-06T03:54:59;15.10;99.90
55211;DHT22;41082;52.822;6.666;2023-08-06T03:57:25;15.10;99.90
55211;DHT22;41082;52.822;6.666;2023-08-06T03:59:50;15.10;99.90
55211;DHT22;41082;52.822;6.666;2023-08-06T04:02:16;15.10;99.90
55211;DHT22;41082;52.822;6.666;2023-08-06T04:04:41;15.10;99.90
55211;DHT22;41082;52.822;6.666;2023-08-06T04:07:07;15.10;99.90
55211;DHT22;41082;52.822;6.666;2023-08-06T04:09:33;15.10;99.90
55211;DHT22;41082;52.822;6.666;2023-08-06T04:11:58;15.10;99.90
55211;DHT22;41082;52.822;6.666;2023-08-06T04:14:29;15.10;99.90
55211;DHT22;41082;52.822;6.666;2023-08-06T04:16:54;15.10;99.90
55211;DHT22;41082;52.822;6.666;2023-08-06T04:19:20;15.10;99.90
55211;DHT22;41082;52.822;6.666;2023-08-06T04:21:45;15.10;99.90
55211;DHT22;41082;52.822;6.666;2023-08-06T04:24:11;15.10;99.90
55211;DHT22;41082;52.822;6.666;2023-08-06T04:26:36;15.10;99.90
55211;DHT22;41082;52.822;6.666;2023-08-06T04:29:02;15.10;99.90
55211;DHT22;41082;52.822;6.666;2023-08-06T04:31:28;15.10;99.90
55211;DHT22;41082;52.822;6.666;2023-08-06T04:33:54;15.10;99.90
55211;DHT22;41082;52.822;6.666;2023-08-06T04:36:20;15.10;99.90
55211;DHT22;41082;52.822;6.666;2023-08-06T04:38:45;15.10;99.90
55211;DHT22;41082;52.822;6.666;2023-08-06T04:41:12;15.00;99.90
55211;DHT22;41082;52.822;6.666;2023-08-06T04:43:38;15.10;99.90
55211;DHT22;41082;52.822;6.666;2023-08-06T04:46:03;15.10;99.90
55211;DHT22;41082;52.822;6.666;2023-08-06T04:48:30;15.10;99.90
55211;DHT22;41082;52.822;6.666;2023-08-06T04:50:56;15.10;99.90
55211;DHT22;41082;52.822;6.666;2023-08-06T04:53:21;15.10;99.90
55211;DHT22;41082;52.822;6.666;2023-08-06T04:55:47;15.10;99.90
55211;DHT22;41082;52.822;6.666;2023-08-06T04:58:13;15.10;99.90
55211;DHT22;41082;52.822;6.666;2023-08-06T05:00:39;15.10;99.90
55211;DHT22;41082;52.822;6.666;2023-08-06T05:03:06;15.10;99.90
55211;DHT22;41082;52.822;6.666;2023-08-06T05:05:32;15.20;99.90
55211;DHT22;41082;52.822;6.666;2023-08-06T05:07:58;15.20;99.90
55211;DHT22;41082;52.822;6.666;2023-08-06T05:10:27;15.30;99.90
55211;DHT22;41082;52.822;6.666;2023-08-06T05:12:53;15.30;99.90
55211;DHT22;41082;52.822;6.666;2023-08-06T05:15:19;15.40;99.90
55211;DHT22;41082;52.822;6.666;2023-08-06T05:17:44;15.40;99.90
55211;DHT22;41082;52.822;6.666;2023-08-06T05:20:11;15.60;99.90
55211;DHT22;41082;52.822;6.666;2023-08-06T05:22:36;15.60;99.90
55211;DHT22;41082;52.822;6.666;2023-08-06T05:25:02;15.60;99.90
55211;DHT22;41082;52.822;6.666;2023-08-06T05:27:28;15.70;99.90
55211;DHT22;41082;52.822;6.666;2023-08-06T05:29:55;15.80;99.90
55211;DHT22;41082;52.822;6.666;2023-08-06T05:32:22;15.80;99.90
55211;DHT22;41082;52.822;6.666;2023-08-06T05:34:47;15.80;99.90
55211;DHT22;41082;52.822;6.666;2023-08-06T05:37:13;15.80;99.90
55211;DHT22;41082;52.822;6.666;2023-08-06T05:39:39;15.80;99.90
55211;DHT22;41082;52.822;6.666;2023-08-06T05:42:05;15.90;99.90
55211;DHT22;41082;52.822;6.666;2023-08-06T05:44:30;15.80;99.90
55211;DHT22;41082;52.822;6.666;2023-08-06T05:46:56;15.90;99.90
55211;DHT22;41082;52.822;6.666;2023-08-06T05:49:22;15.90;99.90
55211;DHT22;41082;52.822;6.666;2023-08-06T05:51:47;15.90;99.90
55211;DHT22;41082;52.822;6.666;2023-08-06T05:54:14;16.00;99.90
55211;DHT22;41082;52.822;6.666;2023-08-06T05:56:39;16.00;99.90
55211;DHT22;41082;52.822;6.666;2023-08-06T05:59:05;16.00;99.90
55211;DHT22;41082;52.822;6.666;2023-08-06T06:01:31;16.10;99.90
55211;DHT22;41082;52.822;6.666;2023-08-06T06:03:56;16.10;99.90
55211;DHT22;41082;52.822;6.666;2023-08-06T06:06:22;16.10;99.90
55211;DHT22;41082;52.822;6.666;2023-08-06T06:08:47;16.10;99.90
55211;DHT22;41082;52.822;6.666;2023-08-06T06:11:13;16.20;99.90
55211;DHT22;41082;52.822;6.666;2023-08-06T06:13:38;16.20;99.90
55211;DHT22;41082;52.822;6.666;2023-08-06T06:16:04;16.30;99.90
55211;DHT22;41082;52.822;6.666;2023-08-06T06:18:30;16.30;99.90
55211;DHT22;41082;52.822;6.666;2023-08-06T06:20:56;16.40;99.90
55211;DHT22;41082;52.822;6.666;2023-08-06T06:23:22;16.30;99.90
55211;DHT22;41082;52.822;6.666;2023-08-06T06:25:50;16.40;99.90
55211;DHT22;41082;52.822;6.666;2023-08-06T06:28:19;16.40;99.90
55211;DHT22;41082;52.822;6.666;2023-08-06T06:30:45;16.50;99.90
55211;DHT22;41082;52.822;6.666;2023-08-06T06:33:10;16.50;99.90
55211;DHT22;41082;52.822;6.666;2023-08-06T06:35:37;16.50;99.90
55211;DHT22;41082;52.822;6.666;2023-08-06T06:38:02;16.60;99.90
55211;DHT22;41082;52.822;6.666;2023-08-06T06:40:28;16.60;99.90
55211;DHT22;41082;52.822;6.666;2023-08-06T06:42:54;16.70;99.90
55211;DHT22;41082;52.822;6.666;2023-08-06T06:45:19;16.70;99.90
55211;DHT22;41082;52.822;6.666;2023-08-06T06:47:45;16.80;99.90
55211;DHT22;41082;52.822;6.666;2023-08-06T06:50:10;16.80;99.90
55211;DHT22;41082;52.822;6.666;2023-08-06T06:52:37;16.80;99.90
55211;DHT22;41082;52.822;6.666;2023-08-06T06:55:03;16.80;99.90
55211;DHT22;41082;52.822;6.666;2023-08-06T06:57:28;16.80;99.90
55211;DHT22;41082;52.822;6.666;2023-08-06T06:59:54;16.90;99.90
55211;DHT22;41082;52.822;6.666;2023-08-06T07:02:19;16.90;99.90
55211;DHT22;41082;52.822;6.666;2023-08-06T07:04:45;17.00;99.90
55211;DHT22;41082;52.822;6.666;2023-08-06T07:07:11;17.00;99.90
55211;DHT22;41082;52.822;6.666;2023-08-06T07:09:36;17.10;99.90
55211;DHT22;41082;52.822;6.666;2023-08-06T07:12:02;17.10;99.90
55211;DHT22;41082;52.822;6.666;2023-08-06T07:14:28;17.20;99.90
55211;DHT22;41082;52.822;6.666;2023-08-06T07:16:54;17.20;99.90
55211;DHT22;41082;52.822;6.666;2023-08-06T07:19:20;17.30;99.90
55211;DHT22;41082;52.822;6.666;2023-08-06T07:21:46;17.30;99.90
55211;DHT22;41082;52.822;6.666;2023-08-06T07:24:11;17.40;99.90
55211;DHT22;41082;52.822;6.666;2023-08-06T07:26:37;17.50;99.90
55211;DHT22;41082;52.822;6.666;2023-08-06T07:29:03;17.60;99.90
55211;DHT22;41082;52.822;6.666;2023-08-06T07:31:28;17.70;99.90
55211;DHT22;41082;52.822;6.666;2023-08-06T07:33:54;17.70;99.90
55211;DHT22;41082;52.822;6.666;2023-08-06T07:36:20;17.70;99.90
55211;DHT22;41082;52.822;6.666;2023-08-06T07:38:46;17.70;99.90
55211;DHT22;41082;52.822;6.666;2023-08-06T07:41:11;17.80;99.90
55211;DHT22;41082;52.822;6.666;2023-08-06T07:43:37;17.80;99.90
55211;DHT22;41082;52.822;6.666;2023-08-06T07:46:03;17.80;99.90
55211;DHT22;41082;52.822;6.666;2023-08-06T07:48:28;17.90;99.90
55211;DHT22;41082;52.822;6.666;2023-08-06T07:50:55;18.00;99.90
55211;DHT22;41082;52.822;6.666;2023-08-06T07:53:24;18.20;99.90
55211;DHT22;41082;52.822;6.666;2023-08-06T07:55:53;18.20;99.90
55211;DHT22;41082;52.822;6.666;2023-08-06T07:58:20;18.30;99.90
55211;DHT22;41082;52.822;6.666;2023-08-06T08:00:46;18.40;99.90
55211;DHT22;41082;52.822;6.666;2023-08-06T08:03:14;18.30;99.90
55211;DHT22;41082;52.822;6.666;2023-08-06T08:05:41;18.40;99.90
55211;DHT22;41082;52.822;6.666;2023-08-06T08:08:07;18.50;99.90
55211;DHT22;41082;52.822;6.666;2023-08-06T08:10:33;18.50;99.90
55211;DHT22;41082;52.822;6.666;2023-08-06T08:12:59;18.60;99.90
55211;DHT22;41082;52.822;6.666;2023-08-06T08:15:25;18.70;99.90
55211;DHT22;41082;52.822;6.666;2023-08-06T08:17:52;18.70;99.90
55211;DHT22;41082;52.822;6.666;2023-08-06T08:20:17;18.60;99.90
55211;DHT22;41082;52.822;6.666;2023-08-06T08:22:44;18.60;99.90
55211;DHT22;41082;52.822;6.666;2023-08-06T08:25:09;18.60;99.90
55211;DHT22;41082;52.822;6.666;2023-08-06T08:27:35;18.70;99.90
55211;DHT22;41082;52.822;6.666;2023-08-06T08:30:01;18.80;99.90
55211;DHT22;41082;52.822;6.666;2023-08-06T08:32:26;18.90;99.90
55211;DHT22;41082;52.822;6.666;2023-08-06T08:34:52;19.00;99.90
55211;DHT22;41082;52.822;6.666;2023-08-06T08:37:19;19.00;99.90
55211;DHT22;41082;52.822;6.666;2023-08-06T08:39:45;19.10;99.90
55211;DHT22;41082;52.822;6.666;2023-08-06T08:42:11;19.10;99.90
55211;DHT22;41082;52.822;6.666;2023-08-06T08:44:37;19.20;99.90
55211;DHT22;41082;52.822;6.666;2023-08-06T08:47:06;19.10;99.90
55211;DHT22;41082;52.822;6.666;2023-08-06T08:49:32;19.20;99.90
55211;DHT22;41082;52.822;6.666;2023-08-06T08:51:59;19.20;99.90
55211;DHT22;41082;52.822;6.666;2023-08-06T08:54:27;19.30;99.90
55211;DHT22;41082;52.822;6.666;2023-08-06T08:56:54;19.40;99.90
55211;DHT22;41082;52.822;6.666;2023-08-06T08:59:20;19.40;99.90
55211;DHT22;41082;52.822;6.666;2023-08-06T09:01:47;19.50;99.90
55211;DHT22;41082;52.822;6.666;2023-08-06T09:04:16;19.60;99.90
55211;DHT22;41082;52.822;6.666;2023-08-06T09:06:43;19.60;99.90
55211;DHT22;41082;52.822;6.666;2023-08-06T09:09:17;19.70;99.90
55211;DHT22;41082;52.822;6.666;2023-08-06T09:11:47;19.70;99.90
55211;DHT22;41082;52.822;6.666;2023-08-06T09:14:14;19.50;99.90
55211;DHT22;41082;52.822;6.666;2023-08-06T09:16:40;19.60;99.90
55211;DHT22;41082;52.822;6.666;2023-08-06T09:19:13;19.70;99.90
55211;DHT22;41082;52.822;6.666;2023-08-06T09:21:41;19.80;99.90
55211;DHT22;41082;52.822;6.666;2023-08-06T09:24:08;20.00;99.90
55211;DHT22;41082;52.822;6.666;2023-08-06T09:26:35;20.10;99.90
55211;DHT22;41082;52.822;6.666;2023-08-06T09:29:01;20.30;99.90
55211;DHT22;41082;52.822;6.666;2023-08-06T09:31:44;20.40;99.90
55211;DHT22;41082;52.822;6.666;2023-08-06T09:34:20;20.30;99.90
55211;DHT22;41082;52.822;6.666;2023-08-06T09:36:51;20.30;99.90
55211;DHT22;41082;52.822;6.666;2023-08-06T09:39:22;20.40;99.90
55211;DHT22;41082;52.822;6.666;2023-08-06T09:41:48;20.40;99.90
55211;DHT22;41082;52.822;6.666;2023-08-06T09:44:17;20.50;99.90
55211;DHT22;41082;52.822;6.666;2023-08-06T09:49:25;20.80;99.90
55211;DHT22;41082;52.822;6.666;2023-08-06T09:51:52;20.90;99.90
55211;DHT22;41082;52.822;6.666;2023-08-06T09:54:24;21.10;99.90
55211;DHT22;41082;52.822;6.666;2023-08-06T09:56:50;21.30;99.90
55211;DHT22;41082;52.822;6.666;2023-08-06T09:59:17;21.40;99.90
55211;DHT22;41082;52.822;6.666;2023-08-06T10:01:43;21.40;99.90
55211;DHT22;41082;52.822;6.666;2023-08-06T10:04:09;21.50;99.90
55211;DHT22;41082;52.822;6.666;2023-08-06T10:06:37;21.60;99.90
55211;DHT22;41082;52.822;6.666;2023-08-06T10:09:06;21.60;99.90
55211;DHT22;41082;52.822;6.666;2023-08-06T10:11:36;21.70;99.90
55211;DHT22;41082;52.822;6.666;2023-08-06T10:14:20;21.80;99.90
55211;DHT22;41082;52.822;6.666;2023-08-06T10:16:47;21.60;99.90
55211;DHT22;41082;52.822;6.666;2023-08-06T10:19:15;21.50;99.90
55211;DHT22;41082;52.822;6.666;2023-08-06T10:21:41;21.60;99.90
55211;DHT22;41082;52.822;6.666;2023-08-06T10:24:07;21.70;99.90
55211;DHT22;41082;52.822;6.666;2023-08-06T10:26:36;21.70;99.90
55211;DHT22;41082;52.822;6.666;2023-08-06T10:29:01;21.80;99.90
55211;DHT22;41082;52.822;6.666;2023-08-06T10:31:54;22.10;99.90
55211;DHT22;41082;52.822;6.666;2023-08-06T10:34:23;22.30;99.90
55211;DHT22;41082;52.822;6.666;2023-08-06T10:36:49;22.50;99.90
55211;DHT22;41082;52.822;6.666;2023-08-06T10:39:14;22.60;99.90
55211;DHT22;41082;52.822;6.666;2023-08-06T10:41:42;22.70;99.90
55211;DHT22;41082;52.822;6.666;2023-08-06T10:44:10;22.90;99.90
55211;DHT22;41082;52.822;6.666;2023-08-06T10:46:37;23.00;99.90
55211;DHT22;41082;52.822;6.666;2023-08-06T10:49:05;23.20;99.90
55211;DHT22;41082;52.822;6.666;2023-08-06T10:51:33;23.20;99.90
55211;DHT22;41082;52.822;6.666;2023-08-06T10:53:58;22.90;99.90
55211;DHT22;41082;52.822;6.666;2023-08-06T10:56:25;22.80;99.90
55211;DHT22;41082;52.822;6.666;2023-08-06T10:58:55;22.80;99.90
55211;DHT22;41082;52.822;6.666;2023-08-06T11:01:22;22.70;99.90
55211;DHT22;41082;52.822;6.666;2023-08-06T11:03:49;22.80;99.90
55211;DHT22;41082;52.822;6.666;2023-08-06T11:06:22;22.70;99.90
55211;DHT22;41082;52.822;6.666;2023-08-06T11:08:51;22.70;99.90
55211;DHT22;41082;52.822;6.666;2023-08-06T11:11:17;22.80;99.90
55211;DHT22;41082;52.822;6.666;2023-08-06T11:13:44;22.90;99.90
55211;DHT22;41082;52.822;6.666;2023-08-06T11:16:17;23.20;99.90
55211;DHT22;41082;52.822;6.666;2023-08-06T11:18:44;23.40;99.90
55211;DHT22;41082;52.822;6.666;2023-08-06T11:21:10;23.60;99.90
55211;DHT22;41082;52.822;6.666;2023-08-06T11:23:37;23.60;99.90
55211;DHT22;41082;52.822;6.666;2023-08-06T11:26:03;23.60;99.90
55211;DHT22;41082;52.822;6.666;2023-08-06T11:28:28;23.70;99.90
55211;DHT22;41082;52.822;6.666;2023-08-06T11:30:54;23.80;99.90
55211;DHT22;41082;52.822;6.666;2023-08-06T11:33:25;23.90;99.90
55211;DHT22;41082;52.822;6.666;2023-08-06T11:35:52;23.80;99.90
55211;DHT22;41082;52.822;6.666;2023-08-06T11:38:19;23.60;99.90
55211;DHT22;41082;52.822;6.666;2023-08-06T11:40:45;23.30;99.90
55211;DHT22;41082;52.822;6.666;2023-08-06T11:43:12;23.10;99.90
55211;DHT22;41082;52.822;6.666;2023-08-06T11:45:38;23.00;99.90
55211;DHT22;41082;52.822;6.666;2023-08-06T11:48:04;22.90;99.90
55211;DHT22;41082;52.822;6.666;2023-08-06T11:50:30;22.80;99.90
55211;DHT22;41082;52.822;6.666;2023-08-06T11:52:57;22.70;99.90
55211;DHT22;41082;52.822;6.666;2023-08-06T11:55:24;22.50;99.90
55211;DHT22;41082;52.822;6.666;2023-08-06T11:57:50;22.40;99.90
55211;DHT22;41082;52.822;6.666;2023-08-06T12:00:16;22.30;99.90
55211;DHT22;41082;52.822;6.666;2023-08-06T12:02:45;22.20;99.90
55211;DHT22;41082;52.822;6.666;2023-08-06T12:05:18;22.10;99.90
55211;DHT22;41082;52.822;6.666;2023-08-06T12:07:48;21.90;99.90
55211;DHT22;41082;52.822;6.666;2023-08-06T12:10:15;21.60;99.90
55211;DHT22;41082;52.822;6.666;2023-08-06T12:12:41;21.50;99.90
55211;DHT22;41082;52.822;6.666;2023-08-06T12:15:07;21.50;99.90
55211;DHT22;41082;52.822;6.666;2023-08-06T12:17:34;21.50;99.90
55211;DHT22;41082;52.822;6.666;2023-08-06T12:20:00;21.40;99.90
55211;DHT22;41082;52.822;6.666;2023-08-06T12:22:26;21.40;99.90
55211;DHT22;41082;52.822;6.666;2023-08-06T12:24:51;21.40;99.90
55211;DHT22;41082;52.822;6.666;2023-08-06T12:27:17;21.40;99.90
55211;DHT22;41082;52.822;6.666;2023-08-06T12:29:44;21.50;99.90
55211;DHT22;41082;52.822;6.666;2023-08-06T12:32:11;21.60;99.90
55211;DHT22;41082;52.822;6.666;2023-08-06T12:34:40;21.50;99.90
55211;DHT22;41082;52.822;6.666;2023-08-06T12:37:07;21.50;99.90
55211;DHT22;41082;52.822;6.666;2023-08-06T12:39:33;21.40;99.90
55211;DHT22;41082;52.822;6.666;2023-08-06T12:42:00;21.40;99.90
55211;DHT22;41082;52.822;6.666;2023-08-06T12:44:26;21.20;99.90
55211;DHT22;41082;52.822;6.666;2023-08-06T12:46:52;21.10;99.90
55211;DHT22;41082;52.822;6.666;2023-08-06T12:49:18;21.10;99.90
55211;DHT22;41082;52.822;6.666;2023-08-06T12:51:47;21.10;99.90
55211;DHT22;41082;52.822;6.666;2023-08-06T12:54:13;21.20;99.90
55211;DHT22;41082;52.822;6.666;2023-08-06T12:56:39;21.30;99.90
55211;DHT22;41082;52.822;6.666;2023-08-06T12:59:04;21.20;99.90
55211;DHT22;41082;52.822;6.666;2023-08-06T13:01:30;21.20;99.90
55211;DHT22;41082;52.822;6.666;2023-08-06T13:03:56;21.20;99.90
55211;DHT22;41082;52.822;6.666;2023-08-06T13:06:21;21.20;99.90
55211;DHT22;41082;52.822;6.666;2023-08-06T13:08:47;21.10;99.90
55211;DHT22;41082;52.822;6.666;2023-08-06T13:11:12;21.00;99.90
55211;DHT22;41082;52.822;6.666;2023-08-06T13:13:38;20.90;99.90
55211;DHT22;41082;52.822;6.666;2023-08-06T13:16:04;20.90;99.90
55211;DHT22;41082;52.822;6.666;2023-08-06T13:18:29;20.90;99.90
55211;DHT22;41082;52.822;6.666;2023-08-06T13:20:56;20.80;99.90
55211;DHT22;41082;52.822;6.666;2023-08-06T13:23:22;20.80;99.90
55211;DHT22;41082;52.822;6.666;2023-08-06T13:25:47;20.80;99.90
55211;DHT22;41082;52.822;6.666;2023-08-06T13:28:13;20.80;99.90
55211;DHT22;41082;52.822;6.666;2023-08-06T13:30:41;20.80;99.90
55211;DHT22;41082;52.822;6.666;2023-08-06T13:33:10;20.80;99.90
55211;DHT22;41082;52.822;6.666;2023-08-06T13:35:36;20.80;99.90
55211;DHT22;41082;52.822;6.666;2023-08-06T13:38:02;20.80;99.90
55211;DHT22;41082;52.822;6.666;2023-08-06T13:40:33;20.90;99.90
55211;DHT22;41082;52.822;6.666;2023-08-06T13:42:59;20.90;99.90
55211;DHT22;41082;52.822;6.666;2023-08-06T13:45:25;21.00;99.90
55211;DHT22;41082;52.822;6.666;2023-08-06T13:47:51;21.00;99.90
55211;DHT22;41082;52.822;6.666;2023-08-06T13:50:17;21.00;99.90
55211;DHT22;41082;52.822;6.666;2023-08-06T13:52:42;21.00;99.90
55211;DHT22;41082;52.822;6.666;2023-08-06T13:55:08;21.00;99.90
55211;DHT22;41082;52.822;6.666;2023-08-06T13:57:34;21.00;99.90
55211;DHT22;41082;52.822;6.666;2023-08-06T14:00:00;20.90;99.90
55211;DHT22;41082;52.822;6.666;2023-08-06T14:02:26;20.90;99.90
55211;DHT22;41082;52.822;6.666;2023-08-06T14:04:52;20.90;99.90
55211;DHT22;41082;52.822;6.666;2023-08-06T14:07:18;20.90;99.90
55211;DHT22;41082;52.822;6.666;2023-08-06T14:09:44;20.90;99.90
55211;DHT22;41082;52.822;6.666;2023-08-06T14:12:10;20.80;99.90
55211;DHT22;41082;52.822;6.666;2023-08-06T14:14:36;20.80;99.90
55211;DHT22;41082;52.822;6.666;2023-08-06T14:17:02;20.80;99.90
55211;DHT22;41082;52.822;6.666;2023-08-06T14:19:27;20.80;99.90
55211;DHT22;41082;52.822;6.666;2023-08-06T14:21:54;20.90;99.90
55211;DHT22;41082;52.822;6.666;2023-08-06T14:24:20;20.90;99.90
55211;DHT22;41082;52.822;6.666;2023-08-06T14:26:46;20.90;99.90
55211;DHT22;41082;52.822;6.666;2023-08-06T14:29:12;20.90;99.90
55211;DHT22;41082;52.822;6.666;2023-08-06T14:31:39;21.00;99.90
55211;DHT22;41082;52.822;6.666;2023-08-06T14:34:05;21.00;99.90
55211;DHT22;41082;52.822;6.666;2023-08-06T14:36:31;21.00;99.90
55211;DHT22;41082;52.822;6.666;2023-08-06T14:38:56;21.00;99.90
55211;DHT22;41082;52.822;6.666;2023-08-06T14:41:22;21.10;99.90
55211;DHT22;41082;52.822;6.666;2023-08-06T14:43:49;21.10;99.90
55211;DHT22;41082;52.822;6.666;2023-08-06T14:46:15;21.10;99.90
55211;DHT22;41082;52.822;6.666;2023-08-06T14:48:40;21.20;99.90
55211;DHT22;41082;52.822;6.666;2023-08-06T14:51:07;21.10;99.90
55211;DHT22;41082;52.822;6.666;2023-08-06T14:53:33;21.10;99.90
55211;DHT22;41082;52.822;6.666;2023-08-06T14:55:59;21.10;99.90
55211;DHT22;41082;52.822;6.666;2023-08-06T14:58:24;21.10;99.90
55211;DHT22;41082;52.822;6.666;2023-08-06T15:00:50;21.20;99.90
55211;DHT22;41082;52.822;6.666;2023-08-06T15:03:16;21.20;99.90
55211;DHT22;41082;52.822;6.666;2023-08-06T15:05:48;21.30;99.90
55211;DHT22;41082;52.822;6.666;2023-08-06T15:08:14;21.30;99.90
55211;DHT22;41082;52.822;6.666;2023-08-06T15:10:39;21.40;99.90
55211;DHT22;41082;52.822;6.666;2023-08-06T15:13:05;21.50;99.90
55211;DHT22;41082;52.822;6.666;2023-08-06T15:15:31;21.50;99.90
55211;DHT22;41082;52.822;6.666;2023-08-06T15:17:57;21.50;99.90
55211;DHT22;41082;52.822;6.666;2023-08-06T15:20:24;21.50;99.90
55211;DHT22;41082;52.822;6.666;2023-08-06T15:22:49;21.40;99.90
55211;DHT22;41082;52.822;6.666;2023-08-06T15:25:15;21.30;99.90
55211;DHT22;41082;52.822;6.666;2023-08-06T15:27:40;21.30;99.90
55211;DHT22;41082;52.822;6.666;2023-08-06T15:30:07;21.30;99.90
55211;DHT22;41082;52.822;6.666;2023-08-06T15:32:32;21.30;99.90